Portada
METAR-TAF:

METAR-TAF

Aeropuertos :

Aeropuerto de Kimmirut

Kimmirut, Nunavut, Canadá

latitud: 62-51N, longitud: 069-53W, altitud: 53 m

Observación

El informe se hizo hace 6 horas y 50 minutos, a las 21:00 UTC
Viento 2 kt con dirección variable
Temperatura -17°C
Humedad 84%
Presión 996 hPa
Visibilidad: 24.1 km
Nubes dispersas a una altura de 2500 ft

METAR: CYLC 182100Z VRB02KT 15SM SCT025 M17/M19 A2941 RMK SC4 -6.4/16.6/0.2/18 MUCH LOOSE LASTSTFD OBS/NEXT 191300Z SLP967

Hora: 22:50 (03:50 UTC)


TAF: falta

Observaciones y pronósticos meteorológicos de más de 4000 aeropuertos (mensajes METAR y TAF).

Los puntos amarillos y rojos representan las estaciones disponibles.

Ponga el ratón en el punto deseado para ver el nombre de la estación.

Haga clic para ver las observaciones y los pronósticos meteorológicos.

Para cambiar el mapa : haga clic en los botones verdes con una cruz de color negro para hacer un zoom, en el botón verde con un guión para alejar o en las flechas verdes para mapas adyacentes.


METAR-TAF: